Time,TemperatureF,DewpointF,PressureIn,WindDirection,WindDirectionDegrees,WindSpeedMPH,WindSpeedGustMPH,Humidity,HourlyPrecipIn,Conditions,Clouds,dailyrainin,SolarRadiationWatts/m^2,SoftwareType,DateUTC
2013-11-30 00:12:00,26.0,25.0,-100.00,SSW,195,1.0,3.0,95,0.00,,,0.01,0.000000,,2013-11-30 07:12:00,
2013-11-30 00:21:00,26.0,25.0,-100.00,SSW,195,1.0,3.0,95,0.00,,,0.01,0.000000,,2013-11-30 07:21:00,
2013-11-30 00:31:00,26.0,25.0,-100.00,SSW,195,1.0,3.0,95,0.00,,,0.01,0.000000,,2013-11-30 07:31:00,
2013-11-30 00:42:00,26.0,25.0,-100.00,SSW,195,1.0,3.0,95,0.00,,,0.01,0.000000,,2013-11-30 07:42:00,
2013-11-30 01:11:00,25.0,24.0,-100.00,ESE,117,0.0,4.0,94,0.00,,,0.01,0.000000,,2013-11-30 08:11:00,
2013-11-30 01:22:00,25.0,24.0,-100.00,ESE,117,0.0,4.0,94,0.00,,,0.01,0.000000,,2013-11-30 08:22:00,
2013-11-30 01:32:00,25.0,24.0,-100.00,ESE,117,0.0,4.0,94,0.00,,,0.01,0.000000,,2013-11-30 08:32:00,
2013-11-30 01:42:00,25.0,24.0,-100.00,ESE,117,0.0,4.0,94,0.00,,,0.01,0.000000,,2013-11-30 08:42:00,
2013-11-30 02:11:00,25.0,24.0,-100.00,SE,129,4.0,5.0,94,0.00,,,0.01,0.000000,,2013-11-30 09:11:00,
2013-11-30 02:21:00,25.0,24.0,-100.00,SE,129,4.0,5.0,94,0.00,,,0.01,0.000000,,2013-11-30 09:21:00,
2013-11-30 02:32:00,25.0,24.0,-100.00,SE,129,4.0,5.0,94,0.00,,,0.01,0.000000,,2013-11-30 09:32:00,
2013-11-30 02:43:00,25.0,24.0,-100.00,SE,129,4.0,5.0,94,0.00,,,0.01,0.000000,,2013-11-30 09:43:00,
2013-11-30 03:22:00,24.0,23.0,-100.00,SE,128,3.0,5.0,94,0.00,,,0.01,0.000000,,2013-11-30 10:22:00,
2013-11-30 03:33:00,24.0,23.0,-100.00,SE,128,3.0,5.0,94,0.00,,,0.01,0.000000,,2013-11-30 10:33:00,
2013-11-30 03:42:00,24.0,23.0,-100.00,SE,128,3.0,5.0,94,0.00,,,0.01,0.000000,,2013-11-30 10:42:00,
2013-11-30 04:21:00,24.0,23.0,-100.00,SE,130,3.0,5.0,94,0.00,,,0.01,0.000000,,2013-11-30 11:21:00,
2013-11-30 04:33:00,24.0,23.0,-100.00,SE,130,3.0,5.0,94,0.00,,,0.01,0.000000,,2013-11-30 11:33:00,
2013-11-30 04:42:00,24.0,23.0,-100.00,SE,130,3.0,5.0,94,0.00,,,0.01,0.000000,,2013-11-30 11:42:00,
2013-11-30 05:11:00,25.0,24.0,-100.00,ESE,123,0.0,5.0,94,0.00,,,0.01,0.000000,,2013-11-30 12:11:00,
2013-11-30 05:22:00,25.0,24.0,-100.00,ESE,123,0.0,5.0,94,0.00,,,0.01,0.000000,,2013-11-30 12:22:00,
2013-11-30 05:32:00,25.0,24.0,-100.00,ESE,123,0.0,5.0,94,0.00,,,0.01,0.000000,,2013-11-30 12:32:00,
2013-11-30 05:42:00,25.0,24.0,-100.00,ESE,123,0.0,5.0,94,0.00,,,0.01,0.000000,,2013-11-30 12:42:00,
2013-11-30 06:11:00,25.0,24.0,-100.00,North,11,0.0,3.0,94,0.00,,,0.01,0.000000,,2013-11-30 13:11:00,
2013-11-30 06:21:00,25.0,24.0,-100.00,North,11,0.0,3.0,94,0.00,,,0.01,0.000000,,2013-11-30 13:21:00,
2013-11-30 06:32:00,25.0,24.0,-100.00,North,11,0.0,3.0,94,0.00,,,0.01,0.000000,,2013-11-30 13:32:00,
2013-11-30 06:42:00,25.0,24.0,-100.00,North,11,0.0,3.0,94,0.00,,,0.01,0.000000,,2013-11-30 13:42:00,
2013-11-30 07:12:00,25.0,24.0,-100.00,ESE,108,1.0,3.0,94,0.00,,,0.01,0.000000,,2013-11-30 14:12:00,
2013-11-30 07:22:00,25.0,24.0,-100.00,ESE,108,1.0,3.0,94,0.00,,,0.01,0.000000,,2013-11-30 14:22:00,
2013-11-30 07:32:00,25.0,24.0,-100.00,ESE,108,1.0,3.0,94,0.00,,,0.01,0.000000,,2013-11-30 14:32:00,
2013-11-30 07:42:00,25.0,24.0,-100.00,ESE,108,1.0,3.0,94,0.00,,,0.01,0.000000,,2013-11-30 14:42:00,
2013-11-30 08:11:00,25.0,24.0,-100.00,North,8,1.0,3.0,95,0.00,,,0.01,5.000000,,2013-11-30 15:11:00,
2013-11-30 08:21:00,25.0,24.0,-100.00,North,8,1.0,3.0,95,0.00,,,0.01,5.000000,,2013-11-30 15:21:00,
2013-11-30 08:33:00,25.0,24.0,-100.00,North,8,1.0,3.0,95,0.00,,,0.01,5.000000,,2013-11-30 15:33:00,
2013-11-30 08:43:00,25.0,24.0,-100.00,North,8,1.0,3.0,95,0.00,,,0.01,5.000000,,2013-11-30 15:43:00,
2013-11-30 09:13:00,27.0,26.0,-100.00,SW,233,1.0,3.0,95,0.00,,,0.01,42.000000,,2013-11-30 16:13:00,
2013-11-30 09:23:00,27.0,26.0,-100.00,SW,233,1.0,3.0,95,0.00,,,0.01,42.000000,,2013-11-30 16:23:00,
2013-11-30 09:33:00,27.0,26.0,-100.00,SW,233,1.0,3.0,95,0.00,,,0.01,42.000000,,2013-11-30 16:33:00,
2013-11-30 09:42:00,27.0,26.0,-100.00,SW,233,1.0,3.0,95,0.00,,,0.01,42.000000,,2013-11-30 16:42:00,
2013-11-30 10:22:00,27.0,26.0,-100.00,NE,36,1.0,3.0,95,0.00,,,-99.99,97.000000,,2013-11-30 17:22:00,
2013-11-30 10:33:00,27.0,26.0,-100.00,NE,36,1.0,3.0,95,0.00,,,-99.99,97.000000,,2013-11-30 17:33:00,
2013-11-30 10:42:00,27.0,26.0,-100.00,NE,36,1.0,3.0,95,0.00,,,-99.99,97.000000,,2013-11-30 17:42:00,
2013-11-30 11:12:00,29.0,28.0,-100.00,NW,309,1.0,3.0,95,0.00,,,0.01,134.000000,,2013-11-30 18:12:00,
2013-11-30 11:21:00,29.0,28.0,-100.00,NW,309,1.0,3.0,95,0.00,,,0.01,134.000000,,2013-11-30 18:21:00,
2013-11-30 11:33:00,29.0,28.0,-100.00,NW,309,1.0,3.0,95,0.00,,,0.01,134.000000,,2013-11-30 18:33:00,
2013-11-30 11:42:00,29.0,28.0,-100.00,NW,309,1.0,3.0,95,0.00,,,0.01,134.000000,,2013-11-30 18:42:00,
2013-11-30 12:11:00,30.0,29.0,-100.00,NW,317,2.0,4.0,95,0.00,,,0.00,159.000000,,2013-11-30 19:11:00,
2013-11-30 12:21:00,30.0,29.0,-100.00,NW,317,2.0,4.0,95,0.00,,,0.00,159.000000,,2013-11-30 19:21:00,
2013-11-30 12:32:00,30.0,29.0,-100.00,NW,317,2.0,4.0,95,0.00,,,0.00,159.000000,,2013-11-30 19:32:00,
2013-11-30 12:42:00,30.0,29.0,-100.00,NW,317,2.0,4.0,95,0.00,,,0.00,159.000000,,2013-11-30 19:42:00,
2013-11-30 13:11:00,30.0,29.0,-100.00,NNW,329,2.0,5.0,95,0.00,,,0.00,182.000000,,2013-11-30 20:11:00,
2013-11-30 13:22:00,30.0,29.0,-100.00,NNW,329,2.0,5.0,95,0.00,,,0.00,182.000000,,2013-11-30 20:22:00,
2013-11-30 13:31:00,30.0,29.0,-100.00,NNW,329,2.0,5.0,95,0.00,,,0.00,182.000000,,2013-11-30 20:31:00,
2013-11-30 13:42:00,30.0,29.0,-100.00,NNW,329,2.0,5.0,95,0.00,,,0.00,182.000000,,2013-11-30 20:42:00,
2013-11-30 14:11:00,30.0,29.0,-100.00,NNW,341,2.0,5.0,95,0.00,,,0.00,158.000000,,2013-11-30 21:11:00,
2013-11-30 14:21:00,30.0,29.0,-100.00,NNW,341,2.0,5.0,95,0.00,,,0.00,158.000000,,2013-11-30 21:21:00,
2013-11-30 14:33:00,30.0,29.0,-100.00,NNW,341,2.0,5.0,95,0.00,,,0.00,158.000000,,2013-11-30 21:33:00,
2013-11-30 14:43:00,30.0,29.0,-100.00,NNW,341,2.0,5.0,95,0.00,,,0.00,158.000000,,2013-11-30 21:43:00,
2013-11-30 15:12:00,30.0,29.0,-100.00,NW,309,2.0,4.0,95,0.00,,,0.00,129.000000,,2013-11-30 22:12:00,
2013-11-30 15:23:00,30.0,29.0,-100.00,NW,309,2.0,4.0,95,0.00,,,0.00,129.000000,,2013-11-30 22:23:00,
2013-11-30 15:33:00,30.0,29.0,-100.00,NW,309,2.0,4.0,95,0.00,,,0.00,129.000000,,2013-11-30 22:33:00,
2013-11-30 15:42:00,30.0,29.0,-100.00,NW,309,2.0,4.0,95,0.00,,,0.00,129.000000,,2013-11-30 22:42:00,
2013-11-30 16:12:00,29.0,28.0,-100.00,WNW,295,2.0,4.0,95,0.00,,,0.00,73.000000,,2013-11-30 23:12:00,
2013-11-30 16:22:00,29.0,28.0,-100.00,WNW,295,2.0,4.0,95,0.00,,,0.00,73.000000,,2013-11-30 23:22:00,
2013-11-30 16:33:00,29.0,28.0,-100.00,WNW,295,2.0,4.0,95,0.00,,,0.00,73.000000,,2013-11-30 23:33:00,
2013-11-30 16:42:00,29.0,28.0,-100.00,WNW,295,2.0,4.0,95,0.00,,,0.00,73.000000,,2013-11-30 23:42:00,
2013-11-30 17:11:00,28.0,27.0,-100.00,WNW,295,2.0,5.0,96,0.00,,,0.00,21.000000,,2013-12-01 00:11:00,
2013-11-30 17:21:00,28.0,27.0,-100.00,WNW,295,2.0,5.0,96,0.00,,,0.00,21.000000,,2013-12-01 00:21:00,
2013-11-30 17:31:00,28.0,27.0,-100.00,WNW,295,2.0,5.0,96,0.00,,,0.00,21.000000,,2013-12-01 00:31:00,
2013-11-30 17:41:00,28.0,27.0,-100.00,WNW,295,2.0,5.0,96,0.00,,,0.00,21.000000,,2013-12-01 00:41:00,
2013-11-30 18:21:00,28.0,27.0,-100.00,WNW,296,1.0,4.0,96,0.00,,,0.00,0.000000,,2013-12-01 01:21:00,
2013-11-30 18:32:00,28.0,27.0,-100.00,WNW,296,1.0,4.0,96,0.00,,,0.00,0.000000,,2013-12-01 01:32:00,
2013-11-30 18:42:00,28.0,27.0,-100.00,WNW,296,1.0,4.0,96,0.00,,,0.00,0.000000,,2013-12-01 01:42:00,
2013-11-30 19:11:00,28.0,27.0,-100.00,SW,233,0.0,4.0,96,0.00,,,0.00,0.000000,,2013-12-01 02:11:00,
2013-11-30 19:21:00,28.0,27.0,-100.00,SW,233,0.0,4.0,96,0.00,,,0.00,0.000000,,2013-12-01 02:21:00,
2013-11-30 19:32:00,28.0,27.0,-100.00,SW,233,0.0,4.0,96,0.00,,,0.00,0.000000,,2013-12-01 02:32:00,
2013-11-30 19:42:00,28.0,27.0,-100.00,SW,233,0.0,4.0,96,0.00,,,0.00,0.000000,,2013-12-01 02:42:00,
2013-11-30 20:11:00,28.0,27.0,-100.00,West,270,1.0,4.0,96,0.00,,,0.00,0.000000,,2013-12-01 03:11:00,
2013-11-30 20:21:00,28.0,27.0,-100.00,West,270,1.0,4.0,96,0.00,,,0.00,0.000000,,2013-12-01 03:21:00,
2013-11-30 20:33:00,28.0,27.0,-100.00,West,270,1.0,4.0,96,0.00,,,0.00,0.000000,,2013-12-01 03:33:00,
2013-11-30 20:43:00,28.0,27.0,-100.00,West,270,1.0,4.0,96,0.00,,,0.00,0.000000,,2013-12-01 03:43:00,
2013-11-30 21:22:00,28.0,27.0,-100.00,WNW,282,2.0,4.0,96,0.00,,,0.00,0.000000,,2013-12-01 04:22:00,
2013-11-30 21:33:00,28.0,27.0,-100.00,WNW,282,2.0,4.0,96,0.00,,,0.00,0.000000,,2013-12-01 04:33:00,
2013-11-30 21:42:00,28.0,27.0,-100.00,WNW,282,2.0,4.0,96,0.00,,,0.00,0.000000,,2013-12-01 04:42:00,
2013-11-30 22:22:00,28.0,27.0,-100.00,NW,317,0.0,3.0,96,0.00,,,0.00,0.000000,,2013-12-01 05:22:00,
2013-11-30 22:33:00,28.0,27.0,-100.00,NW,317,0.0,3.0,96,0.00,,,0.00,0.000000,,2013-12-01 05:33:00,
2013-11-30 22:42:00,28.0,27.0,-100.00,NW,317,0.0,3.0,96,0.00,,,0.00,0.000000,,2013-12-01 05:42:00,
2013-11-30 23:12:00,27.0,26.0,-100.00,NNW,346,1.0,3.0,96,0.00,,,-99.99,0.000000,,2013-12-01 06:12:00,
2013-11-30 23:22:00,27.0,26.0,-100.00,NNW,346,1.0,3.0,96,0.00,,,-99.99,0.000000,,2013-12-01 06:22:00,
2013-11-30 23:32:00,27.0,26.0,-100.00,NNW,346,1.0,3.0,96,0.00,,,-99.99,0.000000,,2013-12-01 06:32:00,
2013-11-30 23:42:00,27.0,26.0,-100.00,NNW,346,1.0,3.0,96,0.00,,,-99.99,0.000000,,2013-12-01 06:42:00,